VVNBVVCI

Guest
Details From VVNB - Hanoi Noibai Intl
To VVCI - HAIPHONG CATBI
Flight Number -
Tags generated
Created
Modified
Stats Distance 57 nm / 106 km
Max Altitude 600 ft / 183 m
Waypoints 3
Social Downloads 2
Likes 0
Share VATSIM

Download

Looking for another format? Having issues loading an existing format? Contact us
Advertisement - Login to hide

Notes

Basic altitude profile: - Ascent Rate: 2500ft/min - Ascent Speed: 250kts - Cruise Altitude: 35000ft - Cruise Speed: 420kts - Descent Rate: 1500ft/min - Descent Speed: 250kts Options: - Use NATs: yes - Use PACOTS: yes - Use low airways: yes - Use high airways: yes

Route

VVNB NOB VVCI

ID Type Via Altitude Latitude Longitude Leg Dist Tot Dist Heading (true) Name
O VVNB APT - 0 ft / 0 m 21.21974˚ 105.80377˚ - 0 nm - Hanoi Noibai Intl
NOB VOR - 600 ft / 183 m 21.21302˚ 105.83494˚ 1 nm 1 nm 103° / 103° NOIBAI VOR-DME
O VVCI APT - 0 ft / 0 m 20.81939˚ 106.72499˚ 55 nm 57 nm 115° / 116° HAIPHONG CATBI

Altitude Profile

Advertisement - Login to hide

VVNB

Details ICAO VVNB (HAN)
Name Hanoi Noibai Intl
Region Vietnam
Timezone Asia/Ho_Chi_Minh (UTC+7.0)
Stats Elevation 39 ft / 12 m (AMSL)
Location 21.219739° 105.803774°
Runways 2
Magnetic Variation 1.479° W

METAR

VVNB 141000Z 04006KT 9999 FEW010 BKN022 17/14 Q1016 NOSIG

Decode

TAF

TAF VVNB 140500Z 1406/1506 02008KT 9999 FEW010 BKN030 TEMPO 1410/1415 3500 -RA BR SCT005 BKN030 TEMPO 1418/1424 2000 RA BR BKN005 OVC030

Decode

Departure Runways

ID Width Length Bearing (true) Bearing (mag) Surface Threshold Offset Overrun Length
11L 148 ft / 45 m 12,454 ft / 3,796 m 107.24° 108.72° Concrete 0 ft / 0 m 0 ft / 0 m
11R 148 ft / 45 m 12,456 ft / 3,797 m 107.22° 108.70° Concrete 0 ft / 0 m 325 ft / 99 m
29L 148 ft / 45 m 12,456 ft / 3,797 m 287.23° 288.71° Concrete 0 ft / 0 m 325 ft / 99 m
29R 148 ft / 45 m 12,454 ft / 3,796 m 287.25° 288.73° Concrete 0 ft / 0 m 868 ft / 265 m

VVCI

Details ICAO VVCI (HPH)
Name HAIPHONG CATBI
Region Vietnam
Timezone Asia/Ho_Chi_Minh (UTC+7.0)
Stats Elevation 6 ft / 2 m (AMSL)
Location 20.819386° 106.724990°
Runways 1
Magnetic Variation 1.554° W

METAR

VVCI 141000Z 35004KT 1800 DZ BR FEW004 BKN006 BKN010 18/18 Q1015 TEMPO 1400 DZ BR

Decode

TAF

TAF VVCI 140500Z 1406/1506 02006KT 7000 SCT007 BKN020 TEMPO 1406/1412 2500 -RA BR SCT004 OVC020 TEMPO 1418/1424 1400 -RA BR SCT003 OVC020

Decode

Destination Runways

ID Width Length Bearing (true) Bearing (mag) Surface Threshold Offset Overrun Length
07 164 ft / 50 m 7,879 ft / 2,402 m 72.18° 73.73° Asphalt 0 ft / 0 m 0 ft / 0 m
25 164 ft / 50 m 7,879 ft / 2,402 m 252.19° 253.74° Asphalt 0 ft / 0 m 0 ft / 0 m

Popular Alternatives